createdAt,value
2023-01-26T00:00:56.109Z,196
2023-01-26T00:02:03.218Z,209
2023-01-26T00:03:10.226Z,211
2023-01-26T00:04:17.415Z,217
2023-01-26T00:05:24.570Z,215
2023-01-26T00:06:31.878Z,215
2023-01-26T00:07:39.357Z,229
2023-01-26T00:08:46.621Z,228
2023-01-26T00:09:57.024Z,212
2023-01-26T00:11:04.202Z,208
2023-01-26T00:12:11.711Z,208
2023-01-26T00:13:18.902Z,208
2023-01-26T00:14:26.013Z,208
2023-01-26T00:15:33.134Z,208
2023-01-26T00:16:40.416Z,208
2023-01-26T00:17:47.385Z,208
2023-01-26T00:18:54.407Z,265
2023-01-26T00:20:01.757Z,259
2023-01-26T00:21:08.838Z,241
2023-01-26T00:22:16.118Z,223
2023-01-26T00:23:23.169Z,206
2023-01-26T00:24:30.214Z,209
2023-01-26T00:25:37.262Z,196
2023-01-26T00:26:44.471Z,183
2023-01-26T00:27:51.602Z,170
2023-01-26T00:28:58.747Z,160
2023-01-26T00:30:05.829Z,169
2023-01-26T00:31:13.604Z,165
2023-01-26T00:32:20.618Z,166
2023-01-26T00:33:27.786Z,159
2023-01-26T00:34:34.860Z,150
2023-01-26T00:35:41.881Z,146
2023-01-26T00:36:49.055Z,145
2023-01-26T00:37:56.228Z,144
2023-01-26T00:39:03.369Z,137
2023-01-26T00:40:10.902Z,141
2023-01-26T00:41:17.852Z,142
2023-01-26T00:42:29.918Z,135
2023-01-26T00:43:37.066Z,136
2023-01-26T00:44:44.135Z,134
2023-01-26T00:45:51.298Z,128
2023-01-26T00:46:58.362Z,121
2023-01-26T00:48:05.542Z,113
2023-01-26T00:49:12.629Z,109
2023-01-26T00:50:19.871Z,97
2023-01-26T00:51:26.817Z,98
2023-01-26T00:52:33.902Z,97
2023-01-26T00:53:41.257Z,94
2023-01-26T00:54:48.252Z,83
2023-01-26T00:55:55.357Z,80
2023-01-26T00:57:02.650Z,67
2023-01-26T00:58:09.655Z,58
2023-01-26T00:59:16.775Z,57
2023-01-26T01:00:23.928Z,56
2023-01-26T01:01:31.092Z,47
2023-01-26T01:02:38.353Z,43
2023-01-26T01:03:45.843Z,41
2023-01-26T01:04:52.927Z,38
2023-01-26T01:06:00.016Z,31
2023-01-26T01:07:07.201Z,31
2023-01-26T01:08:14.362Z,32
2023-01-26T01:09:21.534Z,37
2023-01-26T01:10:28.706Z,25
2023-01-26T01:11:35.648Z,32
2023-01-26T01:12:42.835Z,39
2023-01-26T01:13:49.946Z,43
2023-01-26T01:14:57.087Z,37
2023-01-26T01:16:04.691Z,30
2023-01-26T01:17:11.982Z,28
2023-01-26T01:18:18.990Z,26
2023-01-26T01:19:26.159Z,34
2023-01-26T01:20:33.190Z,26
2023-01-26T01:21:40.387Z,32
2023-01-26T01:22:47.736Z,28
2023-01-26T01:23:54.717Z,30
2023-01-26T01:25:01.789Z,31
2023-01-26T01:26:08.904Z,28
2023-01-26T01:27:16.146Z,30
2023-01-26T01:28:23.374Z,25
2023-01-26T01:29:30.365Z,29
2023-01-26T01:30:37.520Z,25
2023-01-26T01:31:44.667Z,27
2023-01-26T01:32:51.797Z,29
2023-01-26T01:33:58.910Z,38
2023-01-26T01:35:06.083Z,51
2023-01-26T01:36:13.177Z,42
2023-01-26T01:37:20.251Z,35
2023-01-26T01:38:27.418Z,37
2023-01-26T01:39:34.543Z,33
2023-01-26T01:40:41.680Z,25
2023-01-26T01:41:49.019Z,33
2023-01-26T01:42:56.067Z,30
2023-01-26T01:44:03.194Z,33
2023-01-26T01:45:15.356Z,25
2023-01-26T01:46:27.730Z,30
2023-01-26T01:47:34.720Z,31
2023-01-26T01:48:41.792Z,25
2023-01-26T01:49:51.959Z,31
2023-01-26T01:50:59.127Z,25
2023-01-26T01:52:09.283Z,27
2023-01-26T01:53:19.506Z,31
2023-01-26T01:54:29.193Z,30
2023-01-26T01:55:36.265Z,29
2023-01-26T01:56:43.412Z,34
2023-01-26T01:57:50.600Z,30
2023-01-26T01:58:57.769Z,30
2023-01-26T02:00:04.887Z,30
2023-01-26T02:01:12.543Z,31
2023-01-26T02:02:19.648Z,33
2023-01-26T02:03:26.738Z,30
2023-01-26T02:04:33.788Z,25
2023-01-26T02:05:40.981Z,58
2023-01-26T02:06:55.685Z,41
2023-01-26T02:08:02.849Z,32
2023-01-26T02:09:10.031Z,32
2023-01-26T02:10:17.235Z,30
2023-01-26T02:11:24.219Z,33
2023-01-26T02:12:34.357Z,39
2023-01-26T02:13:41.446Z,30
2023-01-26T02:14:48.605Z,31
2023-01-26T02:15:55.739Z,35
2023-01-26T02:17:03.025Z,33
2023-01-26T02:18:10.001Z,28
2023-01-26T02:19:17.173Z,30
2023-01-26T02:20:29.488Z,33
2023-01-26T02:21:36.412Z,27
2023-01-26T02:22:43.527Z,33
2023-01-26T02:23:55.859Z,32
2023-01-26T02:25:05.965Z,25
2023-01-26T02:26:18.847Z,36
2023-01-26T02:27:28.322Z,30
2023-01-26T02:28:35.377Z,30
2023-01-26T02:29:42.498Z,36
2023-01-26T02:30:49.724Z,33
2023-01-26T02:31:56.933Z,28
2023-01-26T02:33:03.933Z,35
2023-01-26T02:34:11.337Z,42
2023-01-26T02:35:18.790Z,34
2023-01-26T02:36:25.909Z,30
2023-01-26T02:37:33.007Z,36
2023-01-26T02:38:40.067Z,36
2023-01-26T02:39:47.244Z,32
2023-01-26T02:41:00.417Z,39
2023-01-26T02:42:13.657Z,35
2023-01-26T02:43:25.879Z,34
2023-01-26T02:44:33.033Z,29
2023-01-26T02:45:40.024Z,30
2023-01-26T02:46:47.204Z,27
2023-01-26T02:47:54.357Z,30
2023-01-26T02:49:01.521Z,25
2023-01-26T02:50:14.073Z,31
2023-01-26T02:51:20.932Z,31
2023-01-26T02:52:28.073Z,37
2023-01-26T02:53:34.958Z,50
2023-01-26T02:54:42.097Z,44
2023-01-26T02:55:54.337Z,36
2023-01-26T02:57:01.589Z,37
2023-01-26T02:58:08.588Z,33
2023-01-26T02:59:15.733Z,40
2023-01-26T03:00:22.910Z,39
2023-01-26T03:01:32.461Z,33
2023-01-26T03:02:37.110Z,27
2023-01-26T03:03:44.273Z,34
2023-01-26T03:04:51.301Z,49
2023-01-26T03:05:58.641Z,36
2023-01-26T03:07:05.717Z,36
2023-01-26T03:08:12.673Z,36
2023-01-26T03:09:19.824Z,33
2023-01-26T03:10:27.042Z,33
2023-01-26T03:11:34.093Z,32
2023-01-26T03:12:46.243Z,28
2023-01-26T03:13:53.420Z,32
2023-01-26T03:15:00.661Z,27
2023-01-26T03:16:13.327Z,28
2023-01-26T03:17:20.519Z,28
2023-01-26T03:18:27.662Z,27
2023-01-26T03:19:39.693Z,30
2023-01-26T03:20:51.896Z,30
2023-01-26T03:22:04.124Z,26
2023-01-26T03:23:16.367Z,32
2023-01-26T03:24:28.777Z,31
2023-01-26T03:25:41.202Z,29
2023-01-26T03:26:53.552Z,26
2023-01-26T03:28:05.730Z,38
2023-01-26T03:29:12.836Z,26
2023-01-26T03:30:20.001Z,25
2023-01-26T03:31:27.334Z,28
2023-01-26T03:32:34.208Z,32
2023-01-26T03:33:41.256Z,33
2023-01-26T03:34:48.429Z,33
2023-01-26T03:35:55.540Z,34
2023-01-26T03:37:02.762Z,30
2023-01-26T03:38:09.808Z,32
2023-01-26T03:39:17.061Z,32
2023-01-26T03:40:29.233Z,32
2023-01-26T03:41:41.274Z,31
2023-01-26T03:42:53.542Z,33
2023-01-26T03:44:05.766Z,37
2023-01-26T03:45:17.913Z,32
2023-01-26T03:46:30.268Z,32
2023-01-26T03:47:42.748Z,29
2023-01-26T03:48:55.067Z,33
2023-01-26T03:50:07.270Z,25
2023-01-26T03:51:19.464Z,36
2023-01-26T03:52:31.734Z,37
2023-01-26T03:53:43.821Z,29
2023-01-26T03:54:56.028Z,38
2023-01-26T03:56:08.237Z,36
2023-01-26T03:57:17.958Z,29
2023-01-26T03:58:25.089Z,40
2023-01-26T03:59:32.209Z,31
2023-01-26T04:00:42.511Z,25
2023-01-26T04:01:49.733Z,30
2023-01-26T04:03:01.673Z,32
2023-01-26T04:04:13.880Z,32
2023-01-26T04:05:26.172Z,32
2023-01-26T04:06:38.357Z,34
2023-01-26T04:07:50.557Z,35
2023-01-26T04:09:07.800Z,34
2023-01-26T04:10:22.548Z,27
2023-01-26T04:11:34.147Z,37
2023-01-26T04:12:44.551Z,28
2023-01-26T04:13:56.710Z,35
2023-01-26T04:15:08.875Z,29
2023-01-26T04:16:21.299Z,32
2023-01-26T04:17:33.560Z,31
2023-01-26T04:18:45.596Z,35
2023-01-26T04:19:57.820Z,30
2023-01-26T04:21:10.518Z,29
2023-01-26T04:22:22.722Z,26
2023-01-26T04:23:29.928Z,30
2023-01-26T04:24:36.924Z,32
2023-01-26T04:25:44.116Z,30
2023-01-26T04:26:51.358Z,33
2023-01-26T04:27:58.317Z,34
2023-01-26T04:29:05.416Z,35
2023-01-26T04:30:15.202Z,45
2023-01-26T04:31:22.444Z,28
2023-01-26T04:32:29.515Z,38
2023-01-26T04:33:36.575Z,28
2023-01-26T04:34:43.904Z,32
2023-01-26T04:35:50.891Z,29
2023-01-26T04:36:57.989Z,32
2023-01-26T04:38:05.079Z,30
2023-01-26T04:39:12.287Z,32
2023-01-26T04:40:19.356Z,28
2023-01-26T04:41:26.725Z,30
2023-01-26T04:42:33.684Z,27
2023-01-26T04:43:40.752Z,29
2023-01-26T04:44:47.884Z,27
2023-01-26T04:45:55.035Z,28
2023-01-26T04:47:04.681Z,31
2023-01-26T04:48:11.805Z,33
2023-01-26T04:49:19.099Z,28
2023-01-26T04:50:26.247Z,29
2023-01-26T04:51:33.335Z,30
2023-01-26T04:52:40.344Z,33
2023-01-26T04:53:47.432Z,34
2023-01-26T04:54:54.635Z,34
2023-01-26T04:56:01.831Z,31
2023-01-26T04:57:09.473Z,30
2023-01-26T04:58:16.564Z,32
2023-01-26T04:59:23.659Z,34
2023-01-26T05:00:30.817Z,30
2023-01-26T05:01:37.877Z,32
2023-01-26T05:02:45.128Z,29
2023-01-26T05:03:52.147Z,34
2023-01-26T05:04:59.241Z,30
2023-01-26T05:06:06.503Z,27
2023-01-26T05:07:13.472Z,30
2023-01-26T05:08:20.860Z,29
2023-01-26T05:09:27.891Z,31
2023-01-26T05:10:34.941Z,30
2023-01-26T05:11:42.020Z,32
2023-01-26T05:12:49.163Z,29
2023-01-26T05:13:56.404Z,35
2023-01-26T05:15:03.576Z,36
2023-01-26T05:16:11.196Z,38
2023-01-26T05:17:18.302Z,31
2023-01-26T05:18:25.464Z,34
2023-01-26T05:19:32.547Z,34
2023-01-26T05:20:39.719Z,26
2023-01-26T05:21:46.831Z,32
2023-01-26T05:22:54.015Z,30
2023-01-26T05:24:01.159Z,27
2023-01-26T05:25:08.228Z,33
2023-01-26T05:26:15.347Z,33
2023-01-26T05:27:22.570Z,39
2023-01-26T05:28:29.656Z,40
2023-01-26T05:29:36.791Z,39
2023-01-26T05:30:43.807Z,32
2023-01-26T05:31:51.006Z,32
2023-01-26T05:32:58.097Z,30
2023-01-26T05:34:08.277Z,29
2023-01-26T05:35:15.431Z,30
2023-01-26T05:36:22.580Z,37
2023-01-26T05:37:29.747Z,32
2023-01-26T05:38:36.800Z,38
2023-01-26T05:39:43.960Z,34
2023-01-26T05:40:51.078Z,35
2023-01-26T05:41:58.335Z,34
2023-01-26T05:43:05.467Z,36
2023-01-26T05:44:12.543Z,36
2023-01-26T05:45:19.735Z,34
2023-01-26T05:46:26.910Z,39
2023-01-26T05:47:33.939Z,35
2023-01-26T05:48:41.131Z,36
2023-01-26T05:49:48.137Z,31
2023-01-26T05:50:55.248Z,36
2023-01-26T05:52:02.426Z,39
2023-01-26T05:53:09.491Z,37
2023-01-26T05:54:16.652Z,33
2023-01-26T05:55:23.900Z,34
2023-01-26T05:56:30.996Z,37
2023-01-26T05:57:37.864Z,33
2023-01-26T05:58:45.059Z,34
2023-01-26T05:59:52.271Z,34
2023-01-26T06:00:59.355Z,45
2023-01-26T06:02:09.089Z,43
2023-01-26T06:03:16.365Z,38
2023-01-26T06:04:23.382Z,39
2023-01-26T06:05:30.429Z,39
2023-01-26T06:06:37.549Z,44
2023-01-26T06:07:44.649Z,42
2023-01-26T06:08:51.871Z,36
2023-01-26T06:09:58.893Z,42
2023-01-26T06:11:06.132Z,41
2023-01-26T06:12:13.311Z,40
2023-01-26T06:13:20.258Z,38
2023-01-26T06:14:27.462Z,38
2023-01-26T06:15:34.578Z,35
2023-01-26T06:16:41.753Z,35
2023-01-26T06:17:48.796Z,34
2023-01-26T06:18:55.961Z,40
2023-01-26T06:20:03.060Z,38
2023-01-26T06:21:10.264Z,38
2023-01-26T06:22:17.438Z,38
2023-01-26T06:23:24.539Z,39
2023-01-26T06:24:31.699Z,39
2023-01-26T06:25:38.751Z,42
2023-01-26T06:26:45.903Z,43
2023-01-26T06:27:53.144Z,47
2023-01-26T06:29:00.163Z,40
2023-01-26T06:30:07.346Z,43
2023-01-26T06:31:15.052Z,42
2023-01-26T06:32:22.063Z,34
2023-01-26T06:33:29.313Z,45
2023-01-26T06:34:36.836Z,44
2023-01-26T06:35:44.084Z,42
2023-01-26T06:36:51.083Z,34
2023-01-26T06:37:58.186Z,41
2023-01-26T06:39:05.370Z,45
2023-01-26T06:40:12.748Z,41
2023-01-26T06:41:19.666Z,40
2023-01-26T06:42:26.979Z,41
2023-01-26T06:43:34.318Z,40
2023-01-26T06:44:41.457Z,38
2023-01-26T06:45:48.675Z,38
2023-01-26T06:46:55.734Z,34
2023-01-26T06:48:02.978Z,35
2023-01-26T06:49:10.134Z,46
2023-01-26T06:50:17.123Z,39
2023-01-26T06:51:24.275Z,36
2023-01-26T06:52:41.409Z,39
2023-01-26T06:53:46.766Z,41
2023-01-26T06:54:56.822Z,32
2023-01-26T06:56:03.871Z,36
2023-01-26T06:57:11.056Z,43
2023-01-26T06:58:18.296Z,39
2023-01-26T06:59:25.361Z,35
2023-01-26T07:00:32.494Z,43
2023-01-26T07:01:39.634Z,42
2023-01-26T07:02:49.682Z,40
2023-01-26T07:03:56.866Z,43
2023-01-26T07:05:03.939Z,44
2023-01-26T07:06:11.126Z,43
2023-01-26T07:07:18.252Z,49
2023-01-26T07:08:25.447Z,43
2023-01-26T07:09:32.638Z,40
2023-01-26T07:10:39.553Z,41
2023-01-26T07:11:46.749Z,38
2023-01-26T07:12:53.854Z,41
2023-01-26T07:14:01.035Z,45
2023-01-26T07:15:08.304Z,43
2023-01-26T07:16:15.424Z,37
2023-01-26T07:17:22.446Z,37
2023-01-26T07:18:29.668Z,32
2023-01-26T07:19:36.653Z,39
2023-01-26T07:20:43.777Z,39
2023-01-26T07:21:51.032Z,33
2023-01-26T07:22:58.059Z,37
2023-01-26T07:24:05.258Z,37
2023-01-26T07:25:12.406Z,41
2023-01-26T07:26:19.494Z,35
2023-01-26T07:27:26.651Z,41
2023-01-26T07:28:33.889Z,42
2023-01-26T07:29:40.879Z,39
2023-01-26T07:30:48.091Z,40
2023-01-26T07:31:55.170Z,37
2023-01-26T07:33:02.294Z,37
2023-01-26T07:34:14.995Z,32
2023-01-26T07:35:22.334Z,38
2023-01-26T07:36:29.310Z,31
2023-01-26T07:37:36.321Z,47
2023-01-26T07:38:43.421Z,56
2023-01-26T07:39:50.642Z,42
2023-01-26T07:40:57.735Z,41
2023-01-26T07:42:04.877Z,31
2023-01-26T07:43:12.086Z,35
2023-01-26T07:44:19.222Z,43
2023-01-26T07:45:26.231Z,37
2023-01-26T07:46:33.367Z,38
2023-01-26T07:47:40.428Z,37
2023-01-26T07:48:47.632Z,36
2023-01-26T07:49:54.844Z,44
2023-01-26T07:51:01.864Z,43
2023-01-26T07:52:09.025Z,38
2023-01-26T07:53:16.122Z,32
2023-01-26T07:54:23.701Z,36
2023-01-26T07:55:31.009Z,42
2023-01-26T07:56:38.085Z,47
2023-01-26T07:57:45.094Z,38
2023-01-26T07:58:53.535Z,40
2023-01-26T08:00:01.122Z,41
2023-01-26T08:01:08.648Z,38
2023-01-26T08:02:16.068Z,35
2023-01-26T08:03:25.257Z,36
2023-01-26T08:04:33.710Z,29
2023-01-26T08:05:41.997Z,31
2023-01-26T08:06:50.950Z,25
2023-01-26T08:07:57.889Z,37
2023-01-26T08:09:05.531Z,37
2023-01-26T08:10:13.037Z,31
2023-01-26T08:11:30.000Z,33
2023-01-26T08:12:41.228Z,31
2023-01-26T08:13:52.350Z,30
2023-01-26T08:14:59.466Z,31
2023-01-26T08:16:06.753Z,25
2023-01-26T08:17:15.091Z,30
2023-01-26T08:18:24.200Z,30
2023-01-26T08:19:31.935Z,31
2023-01-26T08:20:39.173Z,34
2023-01-26T08:21:46.643Z,32
2023-01-26T08:22:56.476Z,27
2023-01-26T08:24:05.582Z,26
2023-01-26T08:25:13.844Z,25
2023-01-26T08:26:21.046Z,28
2023-01-26T08:27:28.228Z,28
2023-01-26T08:28:35.374Z,31
2023-01-26T08:29:42.238Z,30
2023-01-26T08:30:50.330Z,31
2023-01-26T08:32:05.166Z,33
2023-01-26T08:33:13.368Z,27
2023-01-26T08:34:20.569Z,32
2023-01-26T08:35:29.761Z,29
2023-01-26T08:36:38.084Z,27
2023-01-26T08:37:45.544Z,28
2023-01-26T08:38:52.958Z,28
2023-01-26T08:40:02.043Z,32
2023-01-26T08:41:11.837Z,33
2023-01-26T08:42:21.272Z,33
2023-01-26T08:43:27.539Z,32
2023-01-26T08:44:34.935Z,29
2023-01-26T08:45:43.323Z,33
2023-01-26T08:46:51.561Z,38
2023-01-26T08:47:58.975Z,25
2023-01-26T08:49:07.730Z,31
2023-01-26T08:50:15.882Z,26
2023-01-26T08:51:24.264Z,28
2023-01-26T08:52:31.689Z,35
2023-01-26T08:53:39.980Z,28
2023-01-26T08:54:48.223Z,31
2023-01-26T08:55:55.226Z,26
2023-01-26T08:57:03.311Z,26
2023-01-26T08:58:11.563Z,27
2023-01-26T08:59:20.708Z,33
2023-01-26T09:00:28.039Z,31
2023-01-26T09:01:36.454Z,31
2023-01-26T09:02:44.296Z,30
2023-01-26T09:03:52.011Z,31
2023-01-26T09:04:58.866Z,28
2023-01-26T09:06:06.214Z,27
2023-01-26T09:07:15.407Z,33
2023-01-26T09:08:23.057Z,33
2023-01-26T09:09:30.854Z,30
2023-01-26T09:10:42.305Z,30
2023-01-26T09:11:50.865Z,37
2023-01-26T09:13:02.022Z,30
2023-01-26T09:14:09.671Z,32
2023-01-26T09:15:16.819Z,29
2023-01-26T09:16:23.910Z,33
2023-01-26T09:17:31.046Z,37
2023-01-26T09:18:38.274Z,31
2023-01-26T09:19:45.505Z,36
2023-01-26T09:20:53.626Z,35
2023-01-26T09:22:01.717Z,34
2023-01-26T09:23:10.986Z,35
2023-01-26T09:24:18.751Z,36
2023-01-26T09:25:27.078Z,35
2023-01-26T09:26:34.647Z,36
2023-01-26T09:27:42.816Z,36
2023-01-26T09:28:50.167Z,32
2023-01-26T09:29:57.932Z,32
2023-01-26T09:31:04.951Z,32
2023-01-26T09:32:11.947Z,31
2023-01-26T09:33:19.165Z,38
2023-01-26T09:34:26.169Z,38
2023-01-26T09:35:35.334Z,35
2023-01-26T09:36:42.468Z,36
2023-01-26T09:37:49.884Z,36
2023-01-26T09:38:58.181Z,39
2023-01-26T09:40:06.155Z,38
2023-01-26T09:41:14.033Z,40
2023-01-26T09:42:26.684Z,41
2023-01-26T09:43:37.453Z,34
2023-01-26T09:44:52.805Z,38
2023-01-26T09:46:10.589Z,37
2023-01-26T09:47:26.690Z,42
2023-01-26T09:48:44.853Z,38
2023-01-26T09:49:59.329Z,38
2023-01-26T09:51:09.820Z,46
2023-01-26T09:52:19.889Z,36
2023-01-26T09:53:32.234Z,42
2023-01-26T09:54:45.125Z,38
2023-01-26T09:55:55.254Z,36
2023-01-26T09:57:02.354Z,35
2023-01-26T09:58:14.617Z,31
2023-01-26T09:59:25.152Z,30
2023-01-26T10:00:41.156Z,37
2023-01-26T10:01:51.365Z,53
2023-01-26T10:03:04.693Z,49
2023-01-26T10:04:18.095Z,46
2023-01-26T10:05:37.364Z,40
2023-01-26T10:06:49.856Z,46
2023-01-26T10:07:57.477Z,37
2023-01-26T10:09:04.899Z,39
2023-01-26T10:10:12.270Z,39
2023-01-26T10:11:19.201Z,35
2023-01-26T10:12:30.591Z,25
2023-01-26T10:13:39.014Z,38
2023-01-26T10:14:46.221Z,46
2023-01-26T10:15:55.978Z,51
2023-01-26T10:17:06.283Z,36
2023-01-26T10:18:20.248Z,39
2023-01-26T10:19:31.404Z,31
2023-01-26T10:20:38.805Z,30
2023-01-26T10:21:49.246Z,28
2023-01-26T10:22:57.344Z,25
2023-01-26T10:24:09.921Z,25
2023-01-26T10:25:16.974Z,27
2023-01-26T10:26:31.756Z,28
2023-01-26T10:27:39.933Z,28
2023-01-26T10:28:47.765Z,31
2023-01-26T10:29:55.012Z,32
2023-01-26T10:31:02.765Z,30
2023-01-26T10:32:09.797Z,27
2023-01-26T10:33:20.341Z,29
2023-01-26T10:34:28.045Z,32
2023-01-26T10:35:37.193Z,29
2023-01-26T10:36:44.740Z,26
2023-01-26T10:37:53.155Z,30
2023-01-26T10:39:01.269Z,26
2023-01-26T10:40:13.644Z,30
2023-01-26T10:41:21.229Z,28
2023-01-26T10:42:32.838Z,35
2023-01-26T10:43:40.552Z,34
2023-01-26T10:45:00.533Z,38
2023-01-26T10:46:12.178Z,31
2023-01-26T10:47:28.025Z,34
2023-01-26T10:48:35.307Z,31
2023-01-26T10:49:43.472Z,32
2023-01-26T10:50:51.544Z,31
2023-01-26T10:51:59.185Z,28
2023-01-26T10:53:09.195Z,30
2023-01-26T10:54:20.767Z,27
2023-01-26T10:55:28.978Z,32
2023-01-26T10:56:37.022Z,36
2023-01-26T10:57:47.316Z,43
2023-01-26T10:58:55.599Z,42
2023-01-26T11:00:02.861Z,50
2023-01-26T11:01:16.842Z,37
2023-01-26T11:02:24.952Z,30
2023-01-26T11:03:31.894Z,43
2023-01-26T11:04:39.153Z,30
2023-01-26T11:05:47.090Z,27
2023-01-26T11:06:54.224Z,25
2023-01-26T11:08:02.362Z,30
2023-01-26T11:09:10.551Z,29
2023-01-26T11:10:19.437Z,28
2023-01-26T11:11:31.931Z,30
2023-01-26T11:12:39.807Z,30
2023-01-26T11:13:47.190Z,26
2023-01-26T11:14:54.421Z,30
2023-01-26T11:16:04.729Z,33
2023-01-26T11:17:23.301Z,34
2023-01-26T11:18:32.420Z,27
2023-01-26T11:19:44.693Z,25
2023-01-26T11:20:58.788Z,46
2023-01-26T11:22:14.341Z,42
2023-01-26T11:23:21.266Z,32
2023-01-26T11:24:42.440Z,30
2023-01-26T11:25:49.009Z,32
2023-01-26T11:27:02.276Z,26
2023-01-26T11:28:18.091Z,28
2023-01-26T11:29:31.430Z,29
2023-01-26T11:30:46.845Z,32
2023-01-26T11:32:00.486Z,28
2023-01-26T11:33:17.474Z,32
2023-01-26T11:34:25.763Z,35
2023-01-26T11:35:43.818Z,36
2023-01-26T11:36:53.807Z,29
2023-01-26T11:38:11.346Z,33
2023-01-26T11:39:23.867Z,33
2023-01-26T11:40:40.318Z,29
2023-01-26T11:41:55.380Z,34
2023-01-26T11:43:07.548Z,35
2023-01-26T11:44:24.997Z,28
2023-01-26T11:45:32.178Z,27
2023-01-26T11:46:44.808Z,39
2023-01-26T11:47:51.925Z,34
2023-01-26T11:49:07.133Z,33
2023-01-26T11:50:19.409Z,37
2023-01-26T11:51:31.607Z,29
2023-01-26T11:52:49.323Z,38
2023-01-26T11:53:59.600Z,29
2023-01-26T11:55:18.714Z,29
2023-01-26T11:56:38.453Z,29
2023-01-26T11:57:52.900Z,37
2023-01-26T11:59:09.544Z,33
2023-01-26T12:00:29.810Z,34
2023-01-26T12:01:34.025Z,36
2023-01-26T12:02:46.109Z,35
2023-01-26T12:03:54.669Z,40
2023-01-26T12:05:05.450Z,35
2023-01-26T12:06:18.435Z,37
2023-01-26T12:07:36.048Z,34
2023-01-26T12:08:52.542Z,34
2023-01-26T12:10:08.876Z,37
2023-01-26T12:11:17.373Z,34
2023-01-26T12:12:35.900Z,30
2023-01-26T12:13:45.796Z,35
2023-01-26T12:15:05.656Z,38
2023-01-26T12:16:22.154Z,34
2023-01-26T12:17:37.117Z,35
2023-01-26T12:18:53.433Z,49
2023-01-26T12:20:01.874Z,36
2023-01-26T12:21:20.789Z,36
2023-01-26T12:22:30.967Z,47
2023-01-26T12:23:44.195Z,47
2023-01-26T12:25:20.295Z,48
2023-01-26T12:26:11.441Z,52
2023-01-26T12:27:21.993Z,45
2023-01-26T12:28:34.861Z,55
2023-01-26T12:29:43.288Z,44
2023-01-26T12:30:59.993Z,44
2023-01-26T12:32:19.530Z,44
2023-01-26T12:33:27.440Z,42
2023-01-26T12:34:36.613Z,33
2023-01-26T12:35:47.156Z,40
2023-01-26T12:37:06.888Z,42
2023-01-26T12:38:25.247Z,45
2023-01-26T12:39:41.264Z,39
2023-01-26T12:40:51.521Z,38
2023-01-26T12:42:04.425Z,38
2023-01-26T12:43:19.905Z,42
2023-01-26T12:44:40.051Z,41
2023-01-26T12:45:51.349Z,35
2023-01-26T12:47:00.566Z,43
2023-01-26T12:48:12.362Z,36
2023-01-26T12:49:25.061Z,42
2023-01-26T12:50:40.269Z,42
2023-01-26T12:51:52.476Z,37
2023-01-26T12:53:01.901Z,32
2023-01-26T12:54:19.841Z,38
2023-01-26T12:55:34.112Z,37
2023-01-26T12:56:46.295Z,35
2023-01-26T12:57:57.670Z,27
2023-01-26T12:59:08.431Z,30
2023-01-26T13:00:29.349Z,37
2023-01-26T13:01:40.250Z,35
2023-01-26T13:02:51.396Z,41
2023-01-26T13:04:02.042Z,30
2023-01-26T13:05:09.864Z,35
2023-01-26T13:06:32.401Z,40
2023-01-26T13:07:42.525Z,42
2023-01-26T13:08:51.949Z,38
2023-01-26T13:10:04.781Z,36
2023-01-26T13:11:17.593Z,38
2023-01-26T13:12:37.761Z,35
2023-01-26T13:13:53.209Z,41
2023-01-26T13:15:06.306Z,41
2023-01-26T13:16:14.358Z,48
2023-01-26T13:17:25.482Z,49
2023-01-26T13:18:34.863Z,40
2023-01-26T13:19:47.195Z,41
2023-01-26T13:20:54.398Z,46
2023-01-26T13:22:01.977Z,68
2023-01-26T13:23:08.961Z,66
2023-01-26T13:24:26.342Z,72
2023-01-26T13:25:33.581Z,68
2023-01-26T13:26:41.284Z,65
2023-01-26T13:27:51.380Z,65
2023-01-26T13:28:59.935Z,70
2023-01-26T13:30:16.721Z,65
2023-01-26T13:31:29.621Z,59
2023-01-26T13:32:36.630Z,64
2023-01-26T13:33:43.781Z,60
2023-01-26T13:34:50.845Z,64
2023-01-26T13:36:04.294Z,63
2023-01-26T13:37:21.600Z,63
2023-01-26T13:38:40.592Z,78
2023-01-26T13:39:54.412Z,79
2023-01-26T13:41:14.514Z,75
2023-01-26T13:42:28.549Z,78
2023-01-26T13:43:43.515Z,80
2023-01-26T13:44:59.468Z,78
2023-01-26T13:46:18.692Z,83
2023-01-26T13:47:32.018Z,79
2023-01-26T13:48:47.270Z,75
2023-01-26T13:50:02.724Z,82
2023-01-26T13:51:30.856Z,88
2023-01-26T13:52:45.481Z,83
2023-01-26T13:53:54.732Z,78
2023-01-26T13:55:13.956Z,89
2023-01-26T13:56:32.927Z,93
2023-01-26T13:57:51.648Z,103
2023-01-26T14:00:22.949Z,109
2023-01-26T14:01:31.848Z,111
2023-01-26T14:02:37.626Z,112
2023-01-26T14:03:44.607Z,112
2023-01-26T14:04:51.873Z,110
2023-01-26T14:05:58.811Z,106
2023-01-26T14:07:09.042Z,105
2023-01-26T14:08:16.254Z,96
2023-01-26T14:09:23.223Z,96
2023-01-26T14:10:30.465Z,93
2023-01-26T14:11:37.525Z,96
2023-01-26T14:12:44.606Z,82
2023-01-26T14:13:57.695Z,85
2023-01-26T14:15:04.927Z,75
2023-01-26T14:16:12.134Z,68
2023-01-26T14:17:24.838Z,69
2023-01-26T14:18:31.890Z,67
2023-01-26T14:19:39.150Z,73
2023-01-26T14:20:46.095Z,64
2023-01-26T14:21:53.272Z,72
2023-01-26T14:23:03.431Z,70
2023-01-26T14:24:10.623Z,73
2023-01-26T14:25:17.758Z,66
2023-01-26T14:26:24.709Z,75
2023-01-26T14:27:31.955Z,73
2023-01-26T14:28:38.987Z,68
2023-01-26T14:29:46.205Z,72
2023-01-26T14:30:53.508Z,83
2023-01-26T14:32:00.312Z,87
2023-01-26T14:33:07.486Z,97
2023-01-26T14:34:17.062Z,95
2023-01-26T14:35:24.354Z,111
2023-01-26T14:36:32.259Z,123
2023-01-26T14:37:39.517Z,130
2023-01-26T14:38:46.645Z,132
2023-01-26T14:39:54.658Z,129
2023-01-26T14:41:12.291Z,116
2023-01-26T14:42:22.328Z,123
2023-01-26T14:43:29.344Z,111
2023-01-26T14:44:37.385Z,108
2023-01-26T14:45:44.717Z,99
2023-01-26T14:46:54.953Z,99
2023-01-26T14:48:10.085Z,86
2023-01-26T14:49:17.160Z,92
2023-01-26T14:50:24.445Z,87
2023-01-26T14:51:31.605Z,91
2023-01-26T14:52:38.585Z,84
2023-01-26T14:53:45.890Z,80
2023-01-26T14:54:55.873Z,81
2023-01-26T14:56:03.096Z,82
2023-01-26T14:57:10.221Z,83
2023-01-26T14:58:17.449Z,78
2023-01-26T14:59:29.534Z,74
2023-01-26T15:00:41.797Z,84
2023-01-26T15:01:49.780Z,91
2023-01-26T15:02:56.969Z,88
2023-01-26T15:04:04.498Z,76
2023-01-26T15:05:21.994Z,87
2023-01-26T15:06:41.281Z,81
2023-01-26T15:07:48.647Z,90
2023-01-26T15:08:58.594Z,90
2023-01-26T15:10:09.006Z,84
2023-01-26T15:11:21.029Z,82
2023-01-26T15:12:33.285Z,79
2023-01-26T15:13:40.274Z,85
2023-01-26T15:14:50.029Z,87
2023-01-26T15:16:00.258Z,89
2023-01-26T15:17:09.878Z,100
2023-01-26T15:18:27.241Z,95
2023-01-26T15:19:34.402Z,93
2023-01-26T15:20:44.391Z,90
2023-01-26T15:21:56.837Z,93
2023-01-26T15:23:03.890Z,89
2023-01-26T15:24:21.918Z,93
2023-01-26T15:25:28.738Z,96
2023-01-26T15:26:35.889Z,98
2023-01-26T15:27:43.054Z,97
2023-01-26T15:28:54.041Z,94
2023-01-26T15:30:01.353Z,99
2023-01-26T15:31:09.557Z,93
2023-01-26T15:32:16.563Z,97
2023-01-26T15:33:31.841Z,101
2023-01-26T15:34:41.307Z,97
2023-01-26T15:35:48.622Z,96
2023-01-26T15:37:00.899Z,93
2023-01-26T15:38:08.395Z,95
2023-01-26T15:39:15.545Z,94
2023-01-26T15:40:23.027Z,95
2023-01-26T15:41:29.909Z,98
2023-01-26T15:42:37.149Z,94
2023-01-26T15:43:44.186Z,94
2023-01-26T15:44:51.234Z,92
2023-01-26T15:45:58.621Z,96
2023-01-26T15:47:06.513Z,91
2023-01-26T15:48:14.639Z,99
2023-01-26T15:49:21.894Z,97
2023-01-26T15:50:28.907Z,98
2023-01-26T15:51:36.991Z,95
2023-01-26T15:52:44.980Z,99
2023-01-26T15:53:51.926Z,94
2023-01-26T15:54:58.926Z,93
2023-01-26T15:56:06.056Z,91
2023-01-26T15:57:16.805Z,90
2023-01-26T15:58:23.899Z,95
2023-01-26T15:59:32.463Z,88
2023-01-26T16:00:40.639Z,88
2023-01-26T16:01:47.899Z,91
2023-01-26T16:02:55.727Z,85
2023-01-26T16:04:03.076Z,92
2023-01-26T16:05:10.519Z,90
2023-01-26T16:06:23.381Z,92
2023-01-26T16:07:31.531Z,88
2023-01-26T16:08:39.254Z,95
2023-01-26T16:09:46.714Z,100
2023-01-26T16:10:53.876Z,95
2023-01-26T16:12:01.217Z,91
2023-01-26T16:13:08.365Z,87
2023-01-26T16:14:18.415Z,85
2023-01-26T16:15:25.631Z,83
2023-01-26T16:16:40.385Z,81
2023-01-26T16:17:47.344Z,82
2023-01-26T16:18:54.457Z,80
2023-01-26T16:20:01.796Z,83
2023-01-26T16:21:09.273Z,82
2023-01-26T16:22:26.670Z,78
2023-01-26T16:23:33.661Z,85
2023-01-26T16:24:40.859Z,87
2023-01-26T16:25:48.184Z,80